createdAt,value
2018-09-25T00:01:11.611Z,9.19
2018-09-25T00:02:38.682Z,9.20
2018-09-25T00:04:07.019Z,9.22
2018-09-25T00:05:32.831Z,9.23
2018-09-25T00:07:01.053Z,9.21
2018-09-25T00:08:27.401Z,9.17
2018-09-25T00:09:54.225Z,9.13
2018-09-25T00:11:22.558Z,9.10
2018-09-25T00:12:48.799Z,9.12
2018-09-25T00:14:15.995Z,9.12
2018-09-25T00:15:43.206Z,9.09
2018-09-25T00:17:10.059Z,9.06
2018-09-25T00:18:36.786Z,9.03
2018-09-25T00:20:03.684Z,8.98
2018-09-25T00:21:30.917Z,8.95
2018-09-25T00:22:59.277Z,8.96
2018-09-25T00:24:26.648Z,8.98
2018-09-25T00:25:52.970Z,9.01
2018-09-25T00:27:20.322Z,8.99
2018-09-25T00:28:47.728Z,9.00
2018-09-25T00:30:15.907Z,9.01
2018-09-25T00:31:43.152Z,9.02
2018-09-25T00:33:09.764Z,9.03
2018-09-25T00:34:37.061Z,9.03
2018-09-25T00:36:04.509Z,8.96
2018-09-25T00:37:30.670Z,8.91
2018-09-25T00:38:57.203Z,8.89
2018-09-25T00:40:24.547Z,8.87
2018-09-25T00:41:52.927Z,8.87
2018-09-25T00:43:18.888Z,8.86
2018-09-25T00:44:47.218Z,8.85
2018-09-25T00:46:13.400Z,8.83
2018-09-25T00:47:40.145Z,8.82
2018-09-25T00:49:08.414Z,8.82
2018-09-25T00:50:33.890Z,8.80
2018-09-25T00:52:01.485Z,8.78
2018-09-25T00:53:27.722Z,8.75
2018-09-25T00:54:54.912Z,8.75
2018-09-25T00:56:23.204Z,8.74
2018-09-25T00:57:50.513Z,8.73
2018-09-25T00:59:17.742Z,8.72
2018-09-25T01:00:45.109Z,8.69
2018-09-25T01:02:11.654Z,8.70
2018-09-25T01:03:38.874Z,8.70
2018-09-25T01:05:05.187Z,8.69
2018-09-25T01:06:32.508Z,8.68
2018-09-25T01:07:58.782Z,8.67
2018-09-25T01:09:26.106Z,8.66
2018-09-25T01:10:53.548Z,8.65
2018-09-25T01:12:20.783Z,8.64
2018-09-25T01:13:48.956Z,8.63
2018-09-25T01:15:15.215Z,8.62
2018-09-25T01:16:43.524Z,8.61
2018-09-25T01:18:10.348Z,8.58
2018-09-25T01:19:37.645Z,8.57
2018-09-25T01:21:03.756Z,8.55
2018-09-25T01:22:30.595Z,8.53
2018-09-25T01:23:57.879Z,8.51
2018-09-25T01:25:25.185Z,8.50
2018-09-25T01:26:53.489Z,8.49
2018-09-25T01:28:20.903Z,8.48
2018-09-25T01:29:47.091Z,8.48
2018-09-25T01:31:14.970Z,8.48
2018-09-25T01:32:40.667Z,8.48
2018-09-25T01:34:07.787Z,8.48
2018-09-25T01:35:35.523Z,8.49
2018-09-25T01:37:02.777Z,8.51
2018-09-25T01:38:29.964Z,8.50
2018-09-25T01:39:57.409Z,8.50
2018-09-25T01:41:23.133Z,8.48
2018-09-25T01:42:50.266Z,8.47
2018-09-25T01:44:17.939Z,8.44
2018-09-25T01:45:44.832Z,8.42
2018-09-25T01:47:11.629Z,8.39
2018-09-25T01:48:37.530Z,8.35
2018-09-25T01:50:04.214Z,8.33
2018-09-25T01:51:32.547Z,8.32
2018-09-25T01:52:58.729Z,8.31
2018-09-25T01:54:27.058Z,8.30
2018-09-25T01:55:54.271Z,8.30
2018-09-25T01:57:21.614Z,8.23
2018-09-25T01:58:48.672Z,8.21
2018-09-25T02:00:14.909Z,8.15
2018-09-25T02:01:43.325Z,8.09
2018-09-25T02:03:09.296Z,8.00
2018-09-25T02:04:37.062Z,7.91
2018-09-25T02:06:04.303Z,7.88
2018-09-25T02:07:30.513Z,7.83
2018-09-25T02:08:58.236Z,7.76
2018-09-25T02:10:24.423Z,7.71
2018-09-25T02:11:50.960Z,7.68
2018-09-25T02:13:48.315Z,7.67
2018-09-25T02:22:31.303Z,7.80
2018-09-25T02:23:57.860Z,7.90
2018-09-25T02:25:25.131Z,7.94
2018-09-25T02:26:52.201Z,7.90
2018-09-25T02:28:18.382Z,7.93
2018-09-25T02:29:46.681Z,7.94
2018-09-25T02:31:12.952Z,7.96
2018-09-25T02:32:40.273Z,7.98
2018-09-25T02:34:07.416Z,8.01
2018-09-25T02:35:34.619Z,8.02
2018-09-25T02:37:02.557Z,8.03
2018-09-25T02:38:29.346Z,8.01
2018-09-25T02:39:56.857Z,7.96
2018-09-25T02:41:23.597Z,7.96
2018-09-25T02:42:49.377Z,7.95
2018-09-25T02:45:43.710Z,7.91
2018-09-25T02:47:10.783Z,7.90
2018-09-25T02:48:39.016Z,7.80
2018-09-25T02:50:05.717Z,7.73
2018-09-25T02:51:32.513Z,7.68
2018-09-25T02:52:59.569Z,7.62
2018-09-25T02:54:26.678Z,7.56
2018-09-25T02:55:53.017Z,7.49
2018-09-25T02:57:20.294Z,7.43
2018-09-25T03:07:22.161Z,7.43
2018-09-25T03:08:48.179Z,7.41
2018-09-25T03:10:15.185Z,7.40
2018-09-25T03:26:23.753Z,7.58
2018-09-25T03:28:57.579Z,7.54
2018-09-25T03:30:23.097Z,7.53
2018-09-25T03:31:51.142Z,7.46
2018-09-25T03:59:28.478Z,7.77
2018-09-25T04:00:53.499Z,7.77
2018-09-25T04:02:21.724Z,7.69
2018-09-25T04:03:47.686Z,7.63
2018-09-25T04:05:14.803Z,7.58
2018-09-25T04:06:41.960Z,7.57
2018-09-25T04:08:10.203Z,7.53
2018-09-25T04:09:37.485Z,7.46
2018-09-25T04:50:00.641Z,7.76
2018-09-25T04:51:27.499Z,7.77
2018-09-25T04:52:53.534Z,7.71
2018-09-25T04:54:20.764Z,7.63
2018-09-25T04:55:47.820Z,7.55
2018-09-25T04:57:15.103Z,7.43
2018-09-25T04:58:42.150Z,7.41
2018-09-25T05:26:30.051Z,7.82
2018-09-25T05:27:55.610Z,7.81
2018-09-25T05:29:23.828Z,7.80
2018-09-25T05:30:49.786Z,7.79
2018-09-25T05:32:18.025Z,7.74
2018-09-25T05:33:44.152Z,7.69
2018-09-25T06:56:36.202Z,9.54
2018-09-25T06:58:01.759Z,9.60
2018-09-25T06:59:29.670Z,9.63
2018-09-25T07:00:56.925Z,9.63
2018-09-25T07:02:24.244Z,9.64
2018-09-25T07:03:50.475Z,9.68
2018-09-25T07:05:18.710Z,9.69
2018-09-25T07:06:45.709Z,9.71
2018-09-25T07:08:11.971Z,9.72
2018-09-25T07:18:42.981Z,9.96
2018-09-25T07:20:09.651Z,10.04
2018-09-25T07:22:35.095Z,10.15
2018-09-25T07:24:01.982Z,10.19
2018-09-25T07:25:28.271Z,10.22
2018-09-25T07:26:54.326Z,10.25
2018-09-25T07:28:22.014Z,10.28
2018-09-25T07:29:48.644Z,10.30
2018-09-25T07:31:14.797Z,10.31
2018-09-25T07:33:20.470Z,10.32
2018-09-25T07:34:47.281Z,10.31
2018-09-25T07:38:00.994Z,10.36
2018-09-25T07:39:27.310Z,10.41
2018-09-25T07:40:56.052Z,10.45
2018-09-25T07:42:20.857Z,10.49
2018-09-25T07:43:45.477Z,10.52
2018-09-25T07:45:14.523Z,10.53
2018-09-25T07:46:41.520Z,10.55
2018-09-25T07:48:08.927Z,10.57
2018-09-25T07:49:36.930Z,10.60
2018-09-25T07:51:03.402Z,10.63
2018-09-25T07:52:30.694Z,10.66
2018-09-25T07:53:57.841Z,10.70
2018-09-25T07:55:24.485Z,10.74
2018-09-25T07:56:51.842Z,10.78
2018-09-25T07:58:18.208Z,10.83
2018-09-25T07:59:44.589Z,10.86
2018-09-25T08:01:12.023Z,10.88
2018-09-25T08:02:39.294Z,10.90
2018-09-25T08:04:05.544Z,10.91
2018-09-25T08:05:33.190Z,10.94
2018-09-25T08:07:00.615Z,10.96
2018-09-25T08:08:28.210Z,11.00
2018-09-25T08:09:54.738Z,11.03
2018-09-25T08:11:22.259Z,11.07
2018-09-25T08:12:47.548Z,11.11
2018-09-25T08:14:13.836Z,11.16
2018-09-25T08:15:41.951Z,11.21
2018-09-25T08:17:09.281Z,11.28
2018-09-25T08:18:35.064Z,11.35
2018-09-25T08:20:03.426Z,11.43
2018-09-25T08:21:30.009Z,11.51
2018-09-25T08:22:57.512Z,11.58
2018-09-25T08:24:23.822Z,11.65
2018-09-25T08:25:50.726Z,11.72
2018-09-25T08:27:17.339Z,11.79
2018-09-25T08:28:43.975Z,11.84
2018-09-25T08:30:11.914Z,11.87
2018-09-25T08:31:38.039Z,11.89
2018-09-25T08:33:06.697Z,11.91
2018-09-25T08:34:33.373Z,11.91
2018-09-25T08:35:59.957Z,11.93
2018-09-25T08:37:26.839Z,11.96
2018-09-25T08:38:52.581Z,12.01
2018-09-25T08:40:20.860Z,12.05
2018-09-25T08:41:47.324Z,12.13
2018-09-25T08:43:14.283Z,12.20
2018-09-25T08:44:42.716Z,12.28
2018-09-25T08:46:10.043Z,12.35
2018-09-25T08:47:37.583Z,12.39
2018-09-25T08:49:04.047Z,12.43
2018-09-25T08:50:31.552Z,12.44
2018-09-25T08:51:58.841Z,12.44
2018-09-25T08:53:25.078Z,12.45
2018-09-25T08:54:52.485Z,12.44
2018-09-25T08:56:19.438Z,12.42
2018-09-25T08:57:47.805Z,12.37
2018-09-25T08:59:14.981Z,12.31
2018-09-25T09:00:42.206Z,12.24
2018-09-25T09:02:09.374Z,12.24
2018-09-25T09:03:34.910Z,12.28
2018-09-25T09:05:02.435Z,12.34
2018-09-25T09:06:30.707Z,12.41
2018-09-25T09:07:57.966Z,12.44
2018-09-25T09:09:24.388Z,12.43
2018-09-25T09:10:52.248Z,12.43
2018-09-25T09:12:19.639Z,12.45
2018-09-25T09:13:45.806Z,12.48
2018-09-25T09:15:13.399Z,12.52
2018-09-25T09:16:39.484Z,12.57
2018-09-25T09:18:06.590Z,12.56
2018-09-25T09:19:34.097Z,12.51
2018-09-25T09:21:02.450Z,12.44
2018-09-25T09:22:28.736Z,12.40
2018-09-25T09:23:56.307Z,12.35
2018-09-25T09:25:24.602Z,12.34
2018-09-25T09:26:50.918Z,12.34
2018-09-25T09:28:19.192Z,12.40
2018-09-25T09:29:51.712Z,12.46
2018-09-25T09:31:13.998Z,12.51
2018-09-25T09:32:41.266Z,12.60
2018-09-25T09:34:07.118Z,12.70
2018-09-25T09:35:34.560Z,12.77
2018-09-25T09:37:02.130Z,12.83
2018-09-25T09:38:30.527Z,12.87
2018-09-25T09:39:57.674Z,12.91
2018-09-25T09:41:25.321Z,12.93
2018-09-25T09:42:51.580Z,12.96
2018-09-25T09:44:18.867Z,12.98
2018-09-25T09:45:44.785Z,12.99
2018-09-25T09:47:12.735Z,13.00
2018-09-25T09:48:38.733Z,13.02
2018-09-25T09:50:06.162Z,13.02
2018-09-25T09:51:33.666Z,13.02
2018-09-25T09:53:00.010Z,13.03
2018-09-25T09:54:27.479Z,13.08
2018-09-25T09:55:54.696Z,13.15
2018-09-25T09:57:23.083Z,13.22
2018-09-25T09:58:50.510Z,13.27
2018-09-25T10:00:18.052Z,13.28
2018-09-25T10:01:45.287Z,13.28
2018-09-25T10:03:11.289Z,13.30
2018-09-25T10:06:05.227Z,13.32
2018-09-25T10:07:33.513Z,13.36
2018-09-25T10:08:59.930Z,13.41
2018-09-25T10:10:28.298Z,13.44
2018-09-25T10:11:55.698Z,13.49
2018-09-25T10:13:21.341Z,13.56
2018-09-25T10:14:49.474Z,13.54
2018-09-25T10:16:16.904Z,13.65
2018-09-25T10:17:44.018Z,13.77
2018-09-25T10:19:09.819Z,13.89
2018-09-25T10:20:38.228Z,14.03
2018-09-25T10:22:05.557Z,14.15
2018-09-25T10:23:32.772Z,14.19
2018-09-25T10:24:59.234Z,14.24
2018-09-25T10:26:26.826Z,14.25
2018-09-25T10:27:53.365Z,14.22
2018-09-25T10:29:20.808Z,14.25
2018-09-25T10:30:49.275Z,14.32
2018-09-25T10:32:16.511Z,14.35
2018-09-25T10:33:43.225Z,14.37
2018-09-25T10:35:10.620Z,14.35
2018-09-25T10:36:35.744Z,14.35
2018-09-25T10:38:03.204Z,14.38
2018-09-25T10:39:30.608Z,14.42
2018-09-25T10:40:57.128Z,14.43
2018-09-25T10:42:23.855Z,14.47
2018-09-25T10:43:50.224Z,14.52
2018-09-25T10:45:18.639Z,14.59
2018-09-25T10:46:46.121Z,14.61
2018-09-25T10:48:12.528Z,14.54
2018-09-25T10:49:40.910Z,14.55
2018-09-25T10:51:08.372Z,14.57
2018-09-25T10:52:35.728Z,14.57
2018-09-25T10:54:02.183Z,14.54
2018-09-25T10:55:29.598Z,14.56
2018-09-25T10:56:58.889Z,14.61
2018-09-25T10:58:23.825Z,14.66
2018-09-25T10:59:50.267Z,14.67
2018-09-25T11:01:17.634Z,14.77
2018-09-25T11:02:44.984Z,14.87
2018-09-25T11:04:10.847Z,15.02
2018-09-25T11:05:38.241Z,15.28
2018-09-25T11:07:06.532Z,15.50
2018-09-25T11:08:32.985Z,15.64
2018-09-25T11:10:01.542Z,15.85
2018-09-25T11:11:28.981Z,16.01
2018-09-25T11:12:56.428Z,16.08
2018-09-25T11:14:22.528Z,16.20
2018-09-25T11:15:49.917Z,16.33
2018-09-25T11:17:17.242Z,16.59
2018-09-25T11:18:43.885Z,16.69
2018-09-25T11:20:11.276Z,16.88
2018-09-25T11:21:39.618Z,17.08
2018-09-25T11:23:06.191Z,17.22
2018-09-25T11:24:34.656Z,17.35
2018-09-25T11:26:02.276Z,17.44
2018-09-25T11:27:28.545Z,17.50
2018-09-25T11:28:55.963Z,17.67
2018-09-25T11:30:23.448Z,17.77
2018-09-25T11:31:49.767Z,17.89
2018-09-25T11:33:17.085Z,18.09
2018-09-25T11:34:43.002Z,18.27
2018-09-25T11:36:09.438Z,18.33
2018-09-25T11:37:37.911Z,18.17
2018-09-25T11:39:03.677Z,18.20
2018-09-25T11:40:30.929Z,18.10
2018-09-25T11:41:59.481Z,18.14
2018-09-25T11:43:26.012Z,18.28
2018-09-25T11:44:53.439Z,18.33
2018-09-25T11:46:21.860Z,18.19
2018-09-25T11:47:47.282Z,17.77
2018-09-25T11:49:15.807Z,17.79
2018-09-25T11:50:45.104Z,17.80
2018-09-25T11:52:09.125Z,17.70
2018-09-25T11:53:36.667Z,17.61
2018-09-25T11:55:03.987Z,17.64
2018-09-25T11:56:31.455Z,17.91
2018-09-25T11:57:57.922Z,18.13
2018-09-25T11:59:26.386Z,18.30
2018-09-25T12:00:52.837Z,18.29
2018-09-25T12:02:21.402Z,18.49
2018-09-25T12:03:47.995Z,18.41
2018-09-25T12:05:16.370Z,18.62
2018-09-25T12:06:43.742Z,18.69
2018-09-25T12:08:11.326Z,18.80
2018-09-25T12:09:38.665Z,18.69
2018-09-25T12:11:05.168Z,18.55
2018-09-25T12:12:31.805Z,18.59
2018-09-25T12:13:59.049Z,18.77
2018-09-25T12:15:24.453Z,18.97
2018-09-25T12:16:52.999Z,19.32
2018-09-25T12:18:19.410Z,19.51
2018-09-25T12:19:47.010Z,19.57
2018-09-25T12:21:14.516Z,19.43
2018-09-25T12:22:42.943Z,19.13
2018-09-25T12:24:09.472Z,19.01
2018-09-25T12:25:35.971Z,18.99
2018-09-25T12:27:04.333Z,19.32
2018-09-25T12:28:29.786Z,19.27
2018-09-25T12:29:57.498Z,19.22
2018-09-25T12:31:24.972Z,19.47
2018-09-25T12:32:52.492Z,19.62
2018-09-25T12:34:19.690Z,19.44
2018-09-25T12:35:46.117Z,19.31
2018-09-25T12:37:12.784Z,18.95
2018-09-25T12:38:39.843Z,18.67
2018-09-25T12:40:08.124Z,18.65
2018-09-25T12:41:28.451Z,18.27
2018-09-25T12:43:01.823Z,18.11
2018-09-25T12:44:30.253Z,18.23
2018-09-25T12:45:56.640Z,18.21
2018-09-25T12:47:24.061Z,18.17
2018-09-25T12:48:51.467Z,18.23
2018-09-25T12:50:18.911Z,17.82
2018-09-25T12:51:46.347Z,17.48
2018-09-25T12:53:13.823Z,17.56
2018-09-25T12:54:42.145Z,17.87
2018-09-25T12:56:08.479Z,17.87
2018-09-25T12:57:35.858Z,17.97
2018-09-25T12:59:04.343Z,18.05
2018-09-25T13:00:30.425Z,18.05
2018-09-25T13:01:59.030Z,18.28
2018-09-25T13:03:27.571Z,18.49
2018-09-25T13:04:52.789Z,18.48
2018-09-25T13:06:21.430Z,18.44
2018-09-25T13:07:48.935Z,18.40
2018-09-25T13:09:15.278Z,18.35
2018-09-25T13:10:42.916Z,18.42
2018-09-25T13:12:10.436Z,18.37
2018-09-25T13:13:37.859Z,18.41
2018-09-25T13:15:04.138Z,18.46
2018-09-25T13:16:30.640Z,18.49
2018-09-25T13:17:59.072Z,18.50
2018-09-25T13:19:25.285Z,18.56
2018-09-25T13:20:53.894Z,18.63
2018-09-25T13:22:20.439Z,18.69
2018-09-25T13:23:47.819Z,18.62
2018-09-25T13:25:14.376Z,18.51
2018-09-25T13:26:41.194Z,18.46
2018-09-25T13:28:09.654Z,18.45
2018-09-25T13:29:36.339Z,18.39
2018-09-25T13:31:02.801Z,18.55
2018-09-25T13:32:31.104Z,18.54
2018-09-25T13:33:57.560Z,18.54
2018-09-25T13:35:25.960Z,18.44
2018-09-25T13:36:52.366Z,18.25
2018-09-25T13:38:19.629Z,18.05
2018-09-25T13:39:48.038Z,17.89
2018-09-25T13:41:14.578Z,17.72
2018-09-25T13:42:40.038Z,17.49
2018-09-25T13:44:08.430Z,17.56
2018-09-25T13:45:34.863Z,17.72
2018-09-25T13:47:02.512Z,17.88
2018-09-25T13:48:29.951Z,17.90
2018-09-25T13:49:58.847Z,18.07
2018-09-25T13:51:24.014Z,18.24
2018-09-25T13:52:52.281Z,18.10
2018-09-25T13:54:18.474Z,18.04
2018-09-25T13:55:44.606Z,18.02
2018-09-25T13:57:12.022Z,18.12
2018-09-25T13:58:38.918Z,18.22
2018-09-25T14:00:07.332Z,17.98
2018-09-25T14:01:34.859Z,17.93
2018-09-25T14:03:01.374Z,17.85
2018-09-25T14:04:27.777Z,17.73
2018-09-25T14:05:56.254Z,17.78
2018-09-25T14:07:23.378Z,17.60
2018-09-25T14:08:49.748Z,17.43
2018-09-25T14:10:17.167Z,17.38
2018-09-25T14:11:45.368Z,17.26
2018-09-25T14:13:12.395Z,17.21
2018-09-25T14:14:37.930Z,17.13
2018-09-25T14:16:06.210Z,17.17
2018-09-25T14:17:33.550Z,17.16
2018-09-25T14:19:00.076Z,17.09
2018-09-25T14:20:27.720Z,17.13
2018-09-25T14:21:55.049Z,16.99
2018-09-25T14:23:21.241Z,16.92
2018-09-25T14:24:48.751Z,16.86
2018-09-25T14:26:14.975Z,16.72
2018-09-25T14:27:41.997Z,16.65
2018-09-25T14:29:10.334Z,16.61
2018-09-25T14:30:37.574Z,16.54
2018-09-25T14:32:04.075Z,16.55
2018-09-25T14:33:31.392Z,16.58
2018-09-25T14:35:00.591Z,16.50
2018-09-25T14:36:25.045Z,16.43
2018-09-25T14:37:52.529Z,16.33
2018-09-25T14:39:20.030Z,16.21
2018-09-25T14:40:46.368Z,16.23
2018-09-25T14:42:13.437Z,16.25
2018-09-25T14:43:41.956Z,16.25
2018-09-25T14:45:08.179Z,16.08
2018-09-25T14:46:36.660Z,16.00
2018-09-25T14:48:04.192Z,15.98
2018-09-25T14:49:31.563Z,15.82
2018-09-25T14:50:57.894Z,15.69
2018-09-25T14:52:26.249Z,15.64
2018-09-25T14:53:55.673Z,15.59
2018-09-25T14:55:20.083Z,15.59
2018-09-25T14:56:48.489Z,15.59
2018-09-25T14:58:14.776Z,15.52
2018-09-25T14:59:43.174Z,15.54
2018-09-25T15:01:10.108Z,15.56
2018-09-25T15:02:36.481Z,15.47
2018-09-25T15:04:03.974Z,15.43
2018-09-25T15:05:32.532Z,15.43
2018-09-25T15:06:58.731Z,15.34
2018-09-25T15:08:26.133Z,15.31
2018-09-25T15:09:53.765Z,15.35
2018-09-25T15:11:20.944Z,15.37
2018-09-25T15:12:48.400Z,15.32
2018-09-25T15:14:16.929Z,15.33
2018-09-25T15:15:43.262Z,15.34
2018-09-25T15:17:10.813Z,15.38
2018-09-25T15:18:37.344Z,15.40
2018-09-25T15:20:05.744Z,15.39
2018-09-25T15:21:32.384Z,15.41
2018-09-25T15:22:59.522Z,15.42
2018-09-25T15:24:25.890Z,15.38
2018-09-25T15:25:54.349Z,15.36
2018-09-25T15:27:21.761Z,15.33
2018-09-25T15:28:47.942Z,15.31
2018-09-25T15:30:15.282Z,15.31
2018-09-25T15:31:42.657Z,15.30
2018-09-25T15:33:09.300Z,15.31
2018-09-25T15:34:36.971Z,15.29
2018-09-25T15:36:02.992Z,15.26
2018-09-25T15:37:29.595Z,15.12
2018-09-25T15:38:56.874Z,15.06
2018-09-25T15:40:24.361Z,15.07
2018-09-25T15:41:51.530Z,15.08
2018-09-25T15:43:19.886Z,15.05
2018-09-25T15:44:47.394Z,15.03
2018-09-25T15:46:14.215Z,15.04
2018-09-25T15:47:40.617Z,15.00
2018-09-25T15:49:07.866Z,14.97
2018-09-25T15:50:35.278Z,14.99
2018-09-25T15:52:03.480Z,14.95
2018-09-25T15:53:30.927Z,14.95
2018-09-25T15:54:58.421Z,14.94
2018-09-25T15:56:24.757Z,14.92
2018-09-25T15:57:52.346Z,14.85
2018-09-25T15:59:19.644Z,14.75
2018-09-25T16:00:47.346Z,14.69
2018-09-25T16:02:14.665Z,14.60
2018-09-25T16:03:41.523Z,14.61
2018-09-25T16:05:08.237Z,14.56
2018-09-25T16:06:33.748Z,14.56
2018-09-25T16:08:01.061Z,14.53
2018-09-25T16:09:28.455Z,14.49
2018-09-25T16:10:55.211Z,14.50
2018-09-25T16:12:23.642Z,14.52
2018-09-25T16:13:49.926Z,14.50
2018-09-25T16:15:17.502Z,14.47
2018-09-25T16:16:44.784Z,14.38
2018-09-25T16:18:12.209Z,14.28
2018-09-25T16:19:40.351Z,14.18
2018-09-25T16:21:06.822Z,14.17
2018-09-25T16:22:33.311Z,14.07
2018-09-25T16:24:00.624Z,14.01
2018-09-25T16:25:28.188Z,13.95
2018-09-25T16:26:54.788Z,13.94
2018-09-25T16:28:23.271Z,13.95
2018-09-25T16:29:50.757Z,13.98
2018-09-25T16:31:17.169Z,13.96
2018-09-25T16:32:44.554Z,13.90
2018-09-25T16:34:11.809Z,13.83
2018-09-25T16:35:39.137Z,13.81
2018-09-25T16:37:06.333Z,13.83
2018-09-25T16:38:32.381Z,13.85
2018-09-25T16:39:59.169Z,13.83
2018-09-25T16:41:25.364Z,13.75
2018-09-25T16:42:53.608Z,13.70
2018-09-25T16:44:21.124Z,13.67
2018-09-25T16:45:47.871Z,13.64
2018-09-25T16:47:15.183Z,13.60
2018-09-25T16:48:42.613Z,13.50
2018-09-25T16:50:09.533Z,13.46
2018-09-25T16:51:36.753Z,13.42
2018-09-25T16:53:04.085Z,13.40
2018-09-25T16:54:31.492Z,13.34
2018-09-25T16:55:56.857Z,13.25
2018-09-25T16:57:23.493Z,13.23
2018-09-25T16:58:49.853Z,13.21
2018-09-25T17:00:18.220Z,13.17
2018-09-25T17:01:45.401Z,13.16
2018-09-25T17:03:12.176Z,13.15
2018-09-25T17:04:39.460Z,13.16
2018-09-25T17:06:06.849Z,13.18
2018-09-25T17:07:34.049Z,13.17
2018-09-25T17:09:00.443Z,13.15
2018-09-25T17:10:27.879Z,13.15
2018-09-25T17:11:55.200Z,13.15
2018-09-25T17:13:22.082Z,13.14
2018-09-25T17:14:49.058Z,13.12
2018-09-25T17:16:16.502Z,13.10
2018-09-25T17:17:43.966Z,13.08
2018-09-25T17:19:12.405Z,13.05
2018-09-25T17:20:39.724Z,13.02
2018-09-25T17:22:05.265Z,12.99
2018-09-25T17:23:33.476Z,12.95
2018-09-25T17:25:00.931Z,12.90
2018-09-25T17:26:28.408Z,12.86
2018-09-25T17:27:53.870Z,12.83
2018-09-25T17:29:22.190Z,12.79
2018-09-25T17:30:48.076Z,12.76
2018-09-25T17:32:15.409Z,12.72
2018-09-25T17:33:43.622Z,12.70
2018-09-25T17:35:09.740Z,12.67
2018-09-25T17:36:38.022Z,12.62
2018-09-25T17:38:04.556Z,12.57
2018-09-25T17:39:32.805Z,12.51
2018-09-25T17:40:58.408Z,12.48
2018-09-25T17:42:25.915Z,12.44
2018-09-25T17:43:53.556Z,12.44
2018-09-25T17:45:19.763Z,12.45
2018-09-25T17:46:48.250Z,12.46
2018-09-25T17:48:14.420Z,12.47
2018-09-25T17:49:41.366Z,12.41
2018-09-25T17:51:09.405Z,12.38
2018-09-25T17:52:34.912Z,12.38
2018-09-25T17:54:02.200Z,12.35
2018-09-25T17:55:30.586Z,12.22
2018-09-25T17:56:56.820Z,12.10
2018-09-25T17:58:24.197Z,11.92
2018-09-25T17:59:51.470Z,11.71
2018-09-25T18:01:19.915Z,11.56
2018-09-25T18:02:46.120Z,11.48
2018-09-25T18:04:12.364Z,11.41
2018-09-25T18:05:39.292Z,11.37
2018-09-25T18:07:06.534Z,11.37
2018-09-25T18:08:34.050Z,11.38
2018-09-25T18:10:01.265Z,11.40
2018-09-25T18:11:28.514Z,11.42
2018-09-25T18:12:56.966Z,11.44
2018-09-25T18:14:23.300Z,11.43
2018-09-25T18:15:50.787Z,11.40
2018-09-25T18:17:18.225Z,11.32
2018-09-25T18:18:45.295Z,11.20
2018-09-25T18:20:11.548Z,11.07
2018-09-25T18:21:39.078Z,10.98
2018-09-25T18:23:04.973Z,10.98
2018-09-25T18:24:33.489Z,10.90
2018-09-25T18:25:59.772Z,10.78
2018-09-25T18:27:28.039Z,10.64
2018-09-25T18:28:53.584Z,10.52
2018-09-25T18:30:19.770Z,10.44
2018-09-25T18:31:49.159Z,10.39
2018-09-25T18:33:14.428Z,10.47
2018-09-25T18:34:42.711Z,10.55
2018-09-25T18:36:08.614Z,10.61
2018-09-25T18:37:35.998Z,10.67
2018-09-25T18:39:04.476Z,10.64
2018-09-25T18:40:31.627Z,10.52
2018-09-25T18:41:57.877Z,10.40
2018-09-25T18:43:26.100Z,10.27
2018-09-25T18:44:53.482Z,10.16
2018-09-25T18:46:19.600Z,10.12
2018-09-25T18:47:47.171Z,10.06
2018-09-25T18:49:13.932Z,10.05
2018-09-25T18:50:41.137Z,10.09
2018-09-25T18:52:07.186Z,10.18
2018-09-25T18:53:34.857Z,10.30
2018-09-25T18:55:01.106Z,10.42
2018-09-25T18:56:27.589Z,10.53
2018-09-25T18:57:55.398Z,10.64
2018-09-25T18:59:21.057Z,10.73
2018-09-25T19:00:49.428Z,10.81
2018-09-25T19:02:16.128Z,10.87
2018-09-25T19:03:43.330Z,10.92
2018-09-25T19:05:10.608Z,10.98
2018-09-25T19:06:37.186Z,11.02
2018-09-25T19:08:03.977Z,11.05
2018-09-25T19:09:32.190Z,11.09
2018-09-25T19:10:58.870Z,11.12
2018-09-25T19:12:25.270Z,11.14
2018-09-25T19:13:52.024Z,11.16
2018-09-25T19:15:20.437Z,11.17
2018-09-25T19:16:46.743Z,11.19
2018-09-25T19:18:15.031Z,11.20
2018-09-25T19:19:41.510Z,11.20
2018-09-25T19:21:09.960Z,11.21
2018-09-25T19:22:36.218Z,11.22
2018-09-25T19:24:04.763Z,11.23
2018-09-25T19:25:30.990Z,11.23
2018-09-25T19:26:59.415Z,11.23
2018-09-25T19:28:25.976Z,11.22
2018-09-25T19:29:53.450Z,11.21
2018-09-25T19:31:20.025Z,11.21
2018-09-25T19:32:47.486Z,11.20
2018-09-25T19:34:13.039Z,11.20
2018-09-25T19:35:41.383Z,11.19
2018-09-25T19:37:06.945Z,11.19
2018-09-25T19:38:34.736Z,11.18
2018-09-25T19:40:02.245Z,11.18
2018-09-25T19:41:28.460Z,11.18
2018-09-25T19:42:55.918Z,11.13
2018-09-25T19:44:23.582Z,11.12
2018-09-25T19:45:49.829Z,11.11
2018-09-25T19:47:17.441Z,11.11
2018-09-25T19:48:43.820Z,11.11
2018-09-25T19:50:11.136Z,11.10
2018-09-25T19:51:38.385Z,11.09
2018-09-25T19:53:05.620Z,11.10
2018-09-25T19:54:33.225Z,11.09
2018-09-25T19:55:59.461Z,11.07
2018-09-25T19:57:28.759Z,11.04
2018-09-25T19:58:53.152Z,11.02
2018-09-25T20:00:21.642Z,11.01
2018-09-25T20:01:48.775Z,10.96
2018-09-25T20:03:16.020Z,10.91
2018-09-25T20:04:42.263Z,10.92
2018-09-25T20:06:10.133Z,10.89
2018-09-25T20:07:37.446Z,10.81
2018-09-25T20:09:03.825Z,10.69
2018-09-25T20:10:31.296Z,10.55
2018-09-25T20:11:58.563Z,10.45
2018-09-25T20:13:24.996Z,10.35
2018-09-25T20:14:58.154Z,10.19
2018-09-25T20:16:20.463Z,9.98
2018-09-25T20:17:47.724Z,9.80
2018-09-25T20:19:13.153Z,9.68
2018-09-25T20:20:40.534Z,9.58
2018-09-25T20:22:08.831Z,9.49
2018-09-25T20:23:38.102Z,9.44
2018-09-25T20:25:02.334Z,9.36
2018-09-25T20:26:29.615Z,9.26
2018-09-25T20:27:57.889Z,9.21
2018-09-25T20:29:24.377Z,9.19
2018-09-25T20:30:50.637Z,9.20
2018-09-25T20:32:17.715Z,9.25
2018-09-25T20:33:43.799Z,9.31
2018-09-25T20:35:10.285Z,9.38
2018-09-25T20:36:37.286Z,9.45
2018-09-25T20:38:04.507Z,9.53
2018-09-25T20:39:31.802Z,9.62
2018-09-25T20:40:59.906Z,9.73
2018-09-25T20:42:26.263Z,9.82
2018-09-25T20:43:53.504Z,9.89
2018-09-25T20:45:20.687Z,9.96
2018-09-25T20:46:46.863Z,10.03
2018-09-25T20:48:15.156Z,10.08
2018-09-25T20:49:42.581Z,10.12
2018-09-25T20:51:09.697Z,10.15
2018-09-25T20:52:37.071Z,10.20
2018-09-25T20:54:03.446Z,10.23
2018-09-25T20:55:29.896Z,10.25
2018-09-25T20:56:58.189Z,10.27
2018-09-25T20:58:23.486Z,10.29
2018-09-25T20:59:51.812Z,10.30
2018-09-25T21:01:17.957Z,10.33
2018-09-25T21:02:45.362Z,10.33
2018-09-25T21:04:12.775Z,10.33
2018-09-25T21:05:41.129Z,10.34
2018-09-25T21:07:08.281Z,10.34
2018-09-25T21:08:34.627Z,10.35
2018-09-25T21:10:02.866Z,10.35
2018-09-25T21:11:29.994Z,10.36
2018-09-25T21:12:56.293Z,10.38
2018-09-25T21:14:23.642Z,10.39
2018-09-25T21:15:52.002Z,10.40
2018-09-25T21:17:19.190Z,10.41
2018-09-25T21:18:46.613Z,10.41
2018-09-25T21:20:12.593Z,10.39
2018-09-25T21:21:39.441Z,10.37
2018-09-25T21:23:07.833Z,10.36
2018-09-25T21:24:34.245Z,10.37
2018-09-25T21:26:02.454Z,10.36
2018-09-25T21:27:28.821Z,10.35
2018-09-25T21:28:57.246Z,10.34
2018-09-25T21:30:23.426Z,10.34
2018-09-25T21:31:51.637Z,10.35
2018-09-25T21:33:17.852Z,10.36
2018-09-25T21:34:45.336Z,10.32
2018-09-25T21:36:12.565Z,10.30
2018-09-25T21:37:38.981Z,10.28
2018-09-25T21:39:08.423Z,10.27
2018-09-25T21:40:34.079Z,10.27
2018-09-25T21:42:00.534Z,10.23
2018-09-25T21:43:27.864Z,10.17
2018-09-25T21:44:56.376Z,10.15
2018-09-25T21:46:23.853Z,10.14
2018-09-25T21:47:50.359Z,10.07
2018-09-25T21:49:17.851Z,10.04
2018-09-25T21:50:44.187Z,9.94
2018-09-25T21:52:11.398Z,9.89
2018-09-25T21:53:39.703Z,9.88
2018-09-25T21:55:06.946Z,9.86
2018-09-25T21:56:33.352Z,9.85
2018-09-25T21:57:59.872Z,9.81
2018-09-25T21:59:28.319Z,9.76
2018-09-25T22:00:54.613Z,9.69
2018-09-25T22:02:22.073Z,9.63
2018-09-25T22:03:48.412Z,9.58
2018-09-25T22:05:14.604Z,9.60
2018-09-25T22:06:42.972Z,9.63
2018-09-25T22:08:08.709Z,9.64
2018-09-25T22:09:38.124Z,9.65
2018-09-25T22:11:03.244Z,9.65
2018-09-25T22:12:30.722Z,9.66
2018-09-25T22:13:58.018Z,9.62
2018-09-25T22:15:25.376Z,9.64
2018-09-25T22:16:54.682Z,9.67
2018-09-25T22:18:19.742Z,9.68
2018-09-25T22:19:48.306Z,9.68
2018-09-25T22:21:11.741Z,9.69
2018-09-25T22:22:38.065Z,9.70
2018-09-25T22:24:05.521Z,9.72
2018-09-25T22:25:32.076Z,9.73
2018-09-25T22:26:58.289Z,9.77
2018-09-25T22:28:26.618Z,9.78
2018-09-25T22:29:52.995Z,9.80
2018-09-25T22:31:21.358Z,9.81
2018-09-25T22:32:48.883Z,9.83